Time;durP1;ratioP1;P1;durP2;ratioP2;P2;SDS_P1;SDS_P2;PMS_P1;PMS_P2;Temp;Humidity;BMP_temperature;BMP_pressure;BME280_temperature;BME280_humidity;BME280_pressure;Samples;Min_cycle;Max_cycle;Signal;HPM_P1;HPM_P2
2024/03/28 00:02:57;;;;;;;7.50;3.50;;;;;;;13.12;59.28;96761.66;238408;184;137330;-58
2024/03/28 00:08:01;;;;;;;5.60;3.30;;;;;;;13.13;59.19;96760.63;238445;184;136873;-58
2024/03/28 00:13:04;;;;;;;10.50;3.60;;;;;;;13.14;59.23;96767.58;238466;184;147851;-58
2024/03/28 00:18:06;;;;;;;9.60;3.50;;;;;;;13.15;59.34;96759.46;238700;182;139977;-59
2024/03/28 00:23:09;;;;;;;7.50;3.10;;;;;;;13.15;59.31;96750.38;238841;182;138448;-58
2024/03/28 00:28:12;;;;;;;6.20;2.90;;;;;;;13.15;59.44;96743.14;238811;182;148192;-59
2024/03/28 00:33:16;;;;;;;9.10;3.90;;;;;;;13.16;59.48;96735.92;238787;182;137864;-58
2024/03/28 00:38:20;;;;;;;9.40;3.70;;;;;;;13.18;59.52;96720.40;238769;182;137100;-57
2024/03/28 00:43:23;;;;;;;10.30;3.80;;;;;;;13.20;59.70;96718.92;238765;182;149535;-58
2024/03/28 00:48:27;;;;;;;9.70;3.40;;;;;;;13.19;59.73;96721.70;238711;182;137412;-58
2024/03/28 00:53:30;;;;;;;8.80;3.20;;;;;;;13.19;59.69;96718.14;238581;183;136310;-56
2024/03/28 00:58:33;;;;;;;15.90;3.90;;;;;;;13.19;59.98;96697.80;238614;183;150804;-56
2024/03/28 01:03:36;;;;;;;12.90;3.50;;;;;;;13.20;60.16;96697.85;238614;180;140944;-58
2024/03/28 01:08:40;;;;;;;11.00;3.30;;;;;;;13.20;60.18;96691.77;238623;183;138047;-58
2024/03/28 01:13:43;;;;;;;14.90;3.80;;;;;;;13.22;60.44;96689.45;238569;182;150026;-59
2024/03/28 01:18:46;;;;;;;12.20;3.40;;;;;;;13.22;60.62;96683.04;238612;183;138796;-58
2024/03/28 01:23:49;;;;;;;12.10;3.90;;;;;;;13.22;60.95;96680.73;238617;182;137362;-58
2024/03/28 01:28:52;;;;;;;18.70;3.80;;;;;;;13.26;60.95;96671.27;238604;179;149327;-58
2024/03/28 01:33:55;;;;;;;19.30;4.30;;;;;;;13.34;60.92;96663.71;238565;183;136342;-58
2024/03/28 01:38:58;;;;;;;14.60;3.70;;;;;;;13.38;60.99;96659.89;238645;183;137507;-59
2024/03/28 01:44:01;;;;;;;18.30;4.00;;;;;;;13.44;61.05;96660.27;238478;180;149403;-58
2024/03/28 01:49:04;;;;;;;15.50;4.30;;;;;;;13.50;60.95;96661.40;238675;183;136656;-58
2024/03/28 01:54:09;;;;;;;16.60;4.20;;;;;;;13.56;61.03;96662.73;238629;183;137395;-58
2024/03/28 01:59:14;;;;;;;20.30;4.80;;;;;;;13.60;60.83;96662.45;238653;183;149530;-58
2024/03/28 02:04:18;;;;;;;20.60;4.90;;;;;;;13.64;60.86;96655.23;238624;182;137310;-55
2024/03/28 02:09:21;;;;;;;18.90;4.40;;;;;;;13.66;60.80;96649.06;238750;182;137070;-58
2024/03/28 02:14:24;;;;;;;18.20;4.80;;;;;;;13.68;61.13;96647.09;238761;182;149250;-58
2024/03/28 02:19:27;;;;;;;17.40;5.70;;;;;;;13.69;61.11;96653.20;238741;183;137117;-58
2024/03/28 02:24:31;;;;;;;26.40;4.80;;;;;;;13.73;61.15;96640.16;238724;183;137005;-58
2024/03/28 02:29:34;;;;;;;26.90;6.10;;;;;;;13.77;61.14;96643.09;238706;182;151118;-57
2024/03/28 02:34:37;;;;;;;26.40;5.50;;;;;;;13.81;61.18;96645.83;238753;182;136871;-58
2024/03/28 02:39:40;;;;;;;29.10;5.90;;;;;;;13.85;61.13;96631.84;238791;182;136495;-58
2024/03/28 02:44:43;;;;;;;27.80;6.50;;;;;;;13.87;61.15;96603.98;238753;182;150412;-58
2024/03/28 02:49:46;;;;;;;36.00;6.90;;;;;;;13.88;61.40;96595.79;238712;182;137377;-58
2024/03/28 02:54:49;;;;;;;33.60;7.10;;;;;;;13.91;61.45;96615.06;238841;182;136406;-58
2024/03/28 02:59:52;;;;;;;35.80;7.40;;;;;;;13.93;61.48;96617.87;238715;182;150934;-58
2024/03/28 03:04:56;;;;;;;36.30;6.80;;;;;;;13.95;61.58;96602.34;238738;183;137583;-58
2024/03/28 03:09:59;;;;;;;40.30;7.20;;;;;;;13.93;61.68;96591.34;238747;182;136447;-58
2024/03/28 03:15:03;;;;;;;44.80;8.10;;;;;;;13.92;61.78;96582.27;238793;182;151540;-58
2024/03/28 03:20:11;;;;;;;40.00;7.70;;;;;;;13.93;61.81;96577.73;238744;179;137066;-57
2024/03/28 03:25:28;;;;;;;43.50;7.70;;;;;;;13.96;61.85;96582.72;238772;182;137479;-55
2024/03/28 03:35:52;;;;;;;53.40;8.70;;;;;;;14.08;61.68;96578.41;238764;179;136727;-58
2024/03/28 03:40:58;;;;;;;41.20;8.70;;;;;;;14.12;61.56;96565.63;238795;182;136460;-58
2024/03/28 03:46:02;;;;;;;54.60;9.00;;;;;;;14.14;61.60;96553.74;238662;182;149448;-58
2024/03/28 03:51:04;;;;;;;44.70;8.90;;;;;;;14.15;61.53;96545.61;238703;182;138158;-57
2024/03/28 03:56:07;;;;;;;49.60;8.50;;;;;;;14.18;61.60;96524.96;238702;181;137470;-56
2024/03/28 04:01:10;;;;;;;46.00;9.40;;;;;;;14.19;61.44;96537.63;239171;180;150149;-58
2024/03/28 04:06:13;;;;;;;198.10;128.80;;;;;;;14.18;61.62;96533.11;239177;180;138473;-56
2024/03/28 04:11:16;;;;;;;63.10;17.70;;;;;;;14.20;61.90;96517.05;239146;177;138184;-58
2024/03/28 04:16:19;;;;;;;86.10;42.60;;;;;;;14.17;62.16;96516.17;239120;180;150034;-58
2024/03/28 04:21:23;;;;;;;38.10;10.60;;;;;;;14.15;62.29;96517.83;239120;180;137700;-58
2024/03/28 04:26:26;;;;;;;57.90;9.20;;;;;;;14.17;62.00;96512.73;239098;178;138256;-58
2024/03/28 04:31:29;;;;;;;46.30;8.00;;;;;;;14.21;61.73;96506.41;239175;180;149424;-59
2024/03/28 04:36:32;;;;;;;60.50;29.40;;;;;;;14.28;61.70;96508.46;239118;180;137186;-57
2024/03/28 04:41:35;;;;;;;43.80;9.10;;;;;;;14.36;61.78;96501.23;239074;180;137052;-56
2024/03/28 04:46:38;;;;;;;44.70;9.60;;;;;;;14.39;61.35;96507.15;238778;180;149880;-57
2024/03/28 04:51:42;;;;;;;54.40;10.20;;;;;;;14.40;61.16;96505.34;239149;180;137522;-57
2024/03/28 04:56:45;;;;;;;59.20;10.50;;;;;;;14.42;61.13;96511.17;239170;180;138756;-57
2024/03/28 05:01:48;;;;;;;61.60;10.40;;;;;;;14.46;61.08;96507.42;239195;180;151317;-57
2024/03/28 05:06:51;;;;;;;44.30;7.80;;;;;;;14.56;60.46;96502.61;239088;180;138404;-58
2024/03/28 05:11:53;;;;;;;70.10;31.70;;;;;;;14.75;59.86;96504.66;239195;180;137206;-58
2024/03/28 05:16:56;;;;;;;46.80;7.70;;;;;;;14.94;59.27;96501.66;239068;180;149964;-58
2024/03/28 05:21:59;;;;;;;42.10;8.30;;;;;;;15.11;58.64;96507.67;239102;180;137767;-55
2024/03/28 05:27:03;;;;;;;35.20;7.30;;;;;;;15.23;58.21;96525.17;238279;180;150644;-58
2024/03/28 05:32:07;;;;;;;50.30;8.40;;;;;;;15.31;57.86;96531.50;239188;180;149882;-57
2024/03/28 05:37:10;;;;;;;46.40;7.30;;;;;;;15.39;57.51;96527.84;239236;180;137529;-61
2024/03/28 05:42:13;;;;;;;39.80;7.80;;;;;;;15.44;57.21;96527.95;239185;180;136851;-57
2024/03/28 05:47:16;;;;;;;35.90;7.10;;;;;;;15.50;57.07;96525.96;239127;180;149944;-57
2024/03/28 05:52:19;;;;;;;33.70;7.70;;;;;;;15.55;56.91;96519.92;239080;180;137726;-57
2024/03/28 05:57:22;;;;;;;39.30;8.30;;;;;;;15.62;56.91;96513.36;239172;180;137124;-59
2024/03/28 06:02:25;;;;;;;43.00;8.30;;;;;;;15.66;56.88;96510.11;239124;180;150102;-57
2024/03/28 06:07:28;;;;;;;38.80;7.90;;;;;;;15.71;56.78;96525.50;239145;180;137431;-58
2024/03/28 06:12:31;;;;;;;49.00;7.00;;;;;;;15.79;56.35;96522.61;239166;180;140047;-58
2024/03/28 06:17:34;;;;;;;34.50;7.70;;;;;;;15.82;55.96;96528.09;239153;180;150131;-56
2024/03/28 06:22:38;;;;;;;32.90;6.70;;;;;;;15.83;55.71;96511.15;239139;180;137000;-58
2024/03/28 06:27:41;;;;;;;44.10;7.00;;;;;;;15.87;55.68;96510.52;239171;180;137556;-59
2024/03/28 06:32:44;;;;;;;36.30;7.20;;;;;;;15.94;55.73;96501.61;239156;180;152283;-59
2024/03/28 06:37:47;;;;;;;30.90;7.10;;;;;;;16.01;55.42;96507.66;239110;180;137724;-57
2024/03/28 06:42:50;;;;;;;26.30;6.60;;;;;;;16.07;55.27;96505.28;239194;180;139578;-58
2024/03/28 06:47:53;;;;;;;48.40;7.50;;;;;;;16.12;55.37;96506.72;239164;178;150189;-58
2024/03/28 06:52:58;;;;;;;35.60;6.70;;;;;;;16.16;55.69;96513.52;239207;180;140652;-58
2024/03/28 06:58:01;;;;;;;31.10;6.50;;;;;;;16.19;55.54;96551.71;239140;177;136674;-58
2024/03/28 07:03:06;;;;;;;38.50;7.10;;;;;;;16.23;55.56;96558.55;239177;180;149763;-62
2024/03/28 07:08:09;;;;;;;34.50;7.30;;;;;;;16.22;56.02;96559.75;239159;180;138952;-58
2024/03/28 07:13:12;;;;;;;41.00;6.90;;;;;;;16.24;56.09;96562.61;239224;180;137557;-58
2024/03/28 07:18:15;;;;;;;30.50;7.40;;;;;;;16.27;56.22;96572.05;239131;180;151522;-59
2024/03/28 07:23:19;;;;;;;31.90;7.00;;;;;;;16.27;57.22;96577.34;239157;180;137704;-58
2024/03/28 07:28:22;;;;;;;37.80;6.90;;;;;;;16.28;56.92;96573.27;239197;180;137994;-57
2024/03/28 07:33:25;;;;;;;37.90;7.20;;;;;;;16.30;56.72;96563.17;239184;180;150871;-58
2024/03/28 07:38:28;;;;;;;38.40;7.30;;;;;;;16.32;56.55;96554.06;239165;180;136416;-58
2024/03/28 07:43:31;;;;;;;34.40;6.70;;;;;;;16.35;56.64;96562.30;239206;180;137239;-58
2024/03/28 07:48:34;;;;;;;39.60;7.60;;;;;;;16.39;56.45;96565.40;239151;181;150065;-58
2024/03/28 07:53:37;;;;;;;38.40;7.30;;;;;;;16.42;56.37;96559.80;239142;180;137947;-58
2024/03/28 07:58:40;;;;;;;38.00;6.80;;;;;;;16.41;56.57;96555.96;239195;180;137454;-58
2024/03/28 08:03:43;;;;;;;46.70;8.30;;;;;;;16.37;57.22;96555.96;239054;180;149937;-57
2024/03/28 08:08:46;;;;;;;48.10;8.10;;;;;;;16.36;57.03;96556.45;239059;180;136961;-59
2024/03/28 08:13:49;;;;;;;46.00;7.30;;;;;;;16.38;56.95;96570.14;239146;180;136597;-58
2024/03/28 08:18:53;;;;;;;41.50;8.00;;;;;;;16.41;56.83;96579.87;239112;180;151519;-57
2024/03/28 08:23:56;;;;;;;45.30;7.70;;;;;;;16.44;57.06;96593.07;239131;180;136626;-57
2024/03/28 08:28:59;;;;;;;36.60;7.40;;;;;;;16.47;56.85;96585.00;239150;180;137214;-58
2024/03/28 08:34:02;;;;;;;37.60;7.20;;;;;;;16.52;56.43;96582.70;239143;177;151141;-56
2024/03/28 08:39:05;;;;;;;25.10;5.50;;;;;;;16.58;55.65;96585.77;239075;180;136939;-56
2024/03/28 08:44:09;;;;;;;26.20;4.80;;;;;;;16.60;55.03;96587.40;239137;180;136866;-56
2024/03/28 08:49:16;;;;;;;34.00;5.40;;;;;;;16.67;54.90;96577.20;239145;180;152293;-56
2024/03/28 08:54:22;;;;;;;26.00;4.80;;;;;;;16.76;54.80;96593.86;239029;177;137584;-56
2024/03/28 08:59:25;;;;;;;20.90;3.80;;;;;;;16.85;54.38;96603.78;239114;180;138434;-58
2024/03/28 09:04:29;;;;;;;9.10;1.80;;;;;;;16.88;52.76;96604.67;239115;180;151986;-58
2024/03/28 09:09:33;;;;;;;10.90;2.20;;;;;;;16.90;51.57;96610.52;238974;174;138608;-55
2024/03/28 09:14:36;;;;;;;7.90;1.60;;;;;;;16.95;51.02;96615.23;239190;180;138128;-57
2024/03/28 09:19:39;;;;;;;6.40;2.00;;;;;;;17.07;50.71;96623.51;239075;180;152681;-57
2024/03/28 09:24:42;;;;;;;9.00;2.00;;;;;;;17.17;50.33;96628.95;239059;180;137495;-58
2024/03/28 09:29:45;;;;;;;6.30;1.60;;;;;;;17.21;50.13;96634.78;239132;180;141097;-57
2024/03/28 09:34:51;;;;;;;7.40;1.60;;;;;;;17.23;48.95;96638.30;239131;177;151325;-56
2024/03/28 09:39:54;;;;;;;82.10;51.10;;;;;;;17.23;47.42;96648.02;239025;180;140727;-62
2024/03/28 09:44:58;;;;;;;5.30;1.30;;;;;;;17.31;44.80;96642.58;238980;180;137744;-57
2024/03/28 09:50:09;;;;;;;2.70;0.70;;;;;;;17.37;42.34;96640.22;238908;180;153797;-57
2024/03/28 09:55:12;;;;;;;5.20;0.70;;;;;;;17.52;41.12;96652.09;238382;180;138324;-55
2024/03/28 10:00:16;;;;;;;6.40;0.90;;;;;;;17.71;39.79;96663.52;239064;180;137472;-58
2024/03/28 10:05:19;;;;;;;8.50;0.90;;;;;;;17.75;40.24;96674.67;239040;180;151763;-57
2024/03/28 10:10:26;;;;;;;7.70;1.00;;;;;;;17.96;41.42;96689.79;239082;180;137773;-57
2024/03/28 10:15:31;;;;;;;3.10;0.80;;;;;;;18.09;41.30;96698.95;239081;180;137035;-58
2024/03/28 10:20:37;;;;;;;7.30;1.00;;;;;;;18.12;39.60;96715.66;239070;180;151298;-58
2024/03/28 10:25:39;;;;;;;1.00;0.50;;;;;;;18.20;39.00;96732.80;239010;180;137133;-56
2024/03/28 10:30:49;;;;;;;91.10;58.60;;;;;;;18.22;38.31;96741.67;239042;180;136728;-57
2024/03/28 10:36:01;;;;;;;4.70;1.50;;;;;;;18.28;37.69;96745.44;239002;180;152054;-56
2024/03/28 10:41:04;;;;;;;4.80;0.90;;;;;;;18.26;37.72;96745.05;239014;179;139676;-58
2024/03/28 10:46:15;;;;;;;1.30;0.60;;;;;;;18.29;37.76;96745.23;239077;180;137649;-58
2024/03/28 10:51:30;;;;;;;4.10;0.70;;;;;;;18.31;37.27;96760.66;239015;180;153553;-57
2024/03/28 10:56:36;;;;;;;3.00;0.90;;;;;;;18.13;37.24;96763.45;239008;177;145885;-57
2024/03/28 11:01:40;;;;;;;3.20;0.60;;;;;;;17.94;37.56;96772.95;239033;180;136616;-57
2024/03/28 11:06:44;;;;;;;1.80;0.80;;;;;;;17.81;37.91;96771.79;238990;180;151353;-57
2024/03/28 11:11:47;;;;;;;2.70;0.70;;;;;;;17.76;39.08;96784.86;239008;180;136997;-57
2024/03/28 11:16:50;;;;;;;9.20;1.20;;;;;;;17.86;40.10;96794.39;239063;180;136888;-58
2024/03/28 11:21:54;;;;;;;6.90;0.90;;;;;;;17.89;40.19;96797.30;239040;180;151148;-55
2024/03/28 11:26:58;;;;;;;2.70;0.60;;;;;;;17.83;40.64;96813.25;238999;180;136536;-57
2024/03/28 11:32:01;;;;;;;3.70;0.70;;;;;;;17.70;41.06;96810.02;238946;180;137067;-56
2024/03/28 11:37:04;;;;;;;4.60;0.70;;;;;;;17.57;41.43;96810.64;238974;180;151681;-57
2024/03/28 11:42:17;;;;;;;4.20;0.80;;;;;;;17.52;41.44;96819.48;238994;180;136654;-57
2024/03/28 11:47:37;;;;;;;10.30;0.90;;;;;;;17.70;41.07;96830.88;239078;180;137757;-57
2024/03/28 11:52:40;;;;;;;1.90;0.50;;;;;;;17.79;39.49;96834.39;239033;180;151896;-56
2024/03/28 11:57:43;;;;;;;2.10;0.50;;;;;;;17.51;39.17;96841.42;238987;177;137217;-57
2024/03/28 12:02:57;;;;;;;2.80;0.70;;;;;;;17.32;40.40;96854.10;239149;180;139927;-56
2024/03/28 12:08:00;;;;;;;3.30;0.60;;;;;;;17.51;40.75;96867.16;238577;180;152885;-55
2024/03/28 12:13:09;;;;;;;3.90;0.50;;;;;;;17.60;41.21;96881.02;238835;180;137220;-57
2024/03/28 12:18:17;;;;;;;3.20;0.60;;;;;;;17.35;41.69;96898.81;238985;180;137009;-56
2024/03/28 12:23:20;;;;;;;3.10;0.40;;;;;;;16.95;42.64;96915.09;239027;180;151441;-54
2024/03/28 12:28:24;;;;;;;1.60;0.60;;;;;;;16.53;44.15;96930.03;238925;180;137542;-57
2024/03/28 12:33:27;;;;;;;101.50;72.30;;;;;;;16.18;45.57;96943.20;239020;180;136533;-54
2024/03/28 12:38:31;;;;;;;4.90;1.40;;;;;;;15.98;46.77;96951.30;238985;180;151614;-57
2024/03/28 12:43:34;;;;;;;1.60;0.40;;;;;;;16.02;47.06;96949.14;238937;180;137226;-55
2024/03/28 12:48:37;;;;;;;3.00;0.40;;;;;;;16.46;44.86;96950.38;238965;181;137603;-54
2024/03/28 12:53:40;;;;;;;2.10;0.50;;;;;;;16.89;42.94;96938.75;238954;180;151752;-55
2024/03/28 12:58:43;;;;;;;2.60;0.30;;;;;;;17.02;42.21;96931.43;238938;180;136501;-55
2024/03/28 13:03:50;;;;;;;1.50;0.50;;;;;;;17.28;42.19;96934.38;238968;180;136582;-55
2024/03/28 13:08:53;;;;;;;2.10;0.60;;;;;;;17.66;41.29;96940.19;239006;180;152730;-56
2024/03/28 13:13:56;;;;;;;1.00;0.50;;;;;;;18.10;40.76;96930.71;239033;180;137378;-55
2024/03/28 13:18:59;;;;;;;3.30;0.30;;;;;;;18.55;39.82;96932.24;239007;180;138391;-55
2024/03/28 13:24:02;;;;;;;2.10;0.30;;;;;;;18.78;39.14;96931.55;238932;180;151344;-56
2024/03/28 13:29:05;;;;;;;2.20;0.40;;;;;;;18.87;38.31;96934.87;238949;180;139960;-56
2024/03/28 13:34:08;;;;;;;1.70;0.40;;;;;;;19.02;38.46;96945.52;238981;180;136460;-56
2024/03/28 13:39:11;;;;;;;2.20;0.40;;;;;;;19.18;37.99;96947.77;239070;178;151126;-52
2024/03/28 13:44:15;;;;;;;3.10;1.60;;;;;;;19.31;37.55;96954.57;239029;180;136739;-56
2024/03/28 13:49:25;;;;;;;2.00;0.40;;;;;;;19.35;36.98;96960.93;239079;180;136441;-55
2024/03/28 13:54:30;;;;;;;4.10;0.30;;;;;;;19.54;36.45;96957.05;239029;180;151480;-56
2024/03/28 13:59:33;;;;;;;3.50;0.30;;;;;;;19.59;35.63;96963.38;238094;180;136870;-56
2024/03/28 14:04:36;;;;;;;4.20;0.50;;;;;;;19.33;35.17;96965.08;239050;180;136623;-56
2024/03/28 14:09:39;;;;;;;0.80;0.40;;;;;;;18.92;35.59;96965.89;239113;180;151479;-57
2024/03/28 14:14:42;;;;;;;5.50;0.50;;;;;;;18.50;35.99;96967.64;239024;180;137396;-55
2024/03/28 14:19:46;;;;;;;1.30;0.70;;;;;;;18.18;36.41;96967.28;239085;180;137248;-56
2024/03/28 14:24:54;;;;;;;1.60;0.30;;;;;;;17.80;36.72;96975.44;239104;179;152893;-55
2024/03/28 14:29:57;;;;;;;0.60;0.30;;;;;;;17.45;37.11;96972.23;238739;180;137636;-56
2024/03/28 14:35:00;;;;;;;0.70;0.40;;;;;;;17.16;37.72;96979.41;239043;180;137957;-57
2024/03/28 14:40:04;;;;;;;2.40;0.30;;;;;;;16.98;37.84;96977.55;239010;180;151330;-57
2024/03/28 14:45:07;;;;;;;3.00;0.30;;;;;;;16.91;37.93;96973.63;239023;177;139857;-56
2024/03/28 14:50:10;;;;;;;2.50;0.70;;;;;;;16.81;37.56;96977.73;239058;180;137610;-57
2024/03/28 14:55:14;;;;;;;1.70;0.60;;;;;;;16.67;37.55;96975.56;239017;180;151956;-57
2024/03/28 15:00:17;;;;;;;1.60;0.30;;;;;;;16.58;37.97;96970.56;239051;180;136538;-57
2024/03/28 15:05:21;;;;;;;1.40;0.40;;;;;;;16.53;37.74;96976.23;238974;180;137393;-57
2024/03/28 15:10:24;;;;;;;2.40;0.40;;;;;;;16.48;38.23;96984.83;239019;180;151381;-56
2024/03/28 15:15:27;;;;;;;5.40;0.60;;;;;;;16.49;38.18;97000.04;239090;180;138140;-57
2024/03/28 15:20:31;;;;;;;3.70;0.60;;;;;;;16.47;37.98;97015.04;239045;180;140034;-55
2024/03/28 15:25:34;;;;;;;2.00;0.30;;;;;;;16.47;37.49;97021.52;239120;180;151229;-56
2024/03/28 15:30:37;;;;;;;3.70;0.30;;;;;;;16.44;36.95;97022.92;239012;180;139414;-57
2024/03/28 15:35:40;;;;;;;3.20;0.60;;;;;;;16.39;36.38;97028.20;239123;180;136822;-57
2024/03/28 15:40:43;;;;;;;2.30;0.50;;;;;;;16.35;36.35;97038.67;239025;180;151969;-57
2024/03/28 15:45:46;;;;;;;3.90;0.80;;;;;;;16.33;36.26;97044.09;239026;177;138266;-57
2024/03/28 15:50:50;;;;;;;1.70;0.50;;;;;;;16.33;36.34;97049.77;239049;180;136984;-57
2024/03/28 15:55:54;;;;;;;1.30;0.50;;;;;;;16.33;36.27;97058.18;239021;180;152200;-56
2024/03/28 16:00:57;;;;;;;1.80;0.40;;;;;;;16.31;36.25;97060.76;239015;180;136558;-55
2024/03/28 16:06:00;;;;;;;0.70;0.40;;;;;;;16.26;36.15;97063.27;239009;180;139347;-56
2024/03/28 16:11:03;;;;;;;4.30;0.70;;;;;;;16.21;36.54;97072.05;239054;180;151853;-55
2024/03/28 16:16:06;;;;;;;2.60;0.70;;;;;;;16.13;36.74;97086.05;238757;180;137364;-55
2024/03/28 16:21:11;;;;;;;1.30;0.30;;;;;;;16.08;37.10;97097.05;239095;180;137325;-57
2024/03/28 16:26:14;;;;;;;2.90;0.70;;;;;;;16.05;37.33;97098.88;238953;180;151843;-59
2024/03/28 16:31:17;;;;;;;1.80;0.70;;;;;;;16.02;37.33;97101.31;239064;180;136543;-56
2024/03/28 16:36:20;;;;;;;3.00;0.60;;;;;;;16.00;37.30;97107.13;239112;180;136485;-58
2024/03/28 16:41:23;;;;;;;1.10;0.60;;;;;;;15.96;37.63;97113.28;238968;180;151166;-58
2024/03/28 16:46:26;;;;;;;3.20;1.00;;;;;;;15.95;37.81;97121.30;239031;180;136763;-57
2024/03/28 16:51:29;;;;;;;2.70;0.70;;;;;;;15.94;37.88;97128.66;239038;180;136584;-58
2024/03/28 16:56:35;;;;;;;3.20;1.40;;;;;;;15.87;37.96;97135.44;239101;180;151559;-57
2024/03/28 17:01:38;;;;;;;1.50;0.90;;;;;;;15.85;38.24;97139.09;239034;180;137667;-58
2024/03/28 17:06:41;;;;;;;3.00;1.20;;;;;;;15.83;38.39;97141.42;239134;179;137524;-59
2024/03/28 17:11:44;;;;;;;6.10;0.80;;;;;;;16.10;42.67;97147.36;239038;180;152032;-55
2024/03/28 17:16:51;;;;;;;4.70;1.00;;;;;;;16.16;38.99;97150.77;238978;180;137137;-59
2024/03/28 17:21:54;;;;;;;3.20;0.80;;;;;;;16.02;38.97;97160.78;239049;180;136899;-53
2024/03/28 17:26:57;;;;;;;2.90;1.00;;;;;;;15.97;39.05;97161.58;238946;180;152631;-54
2024/03/28 17:32:00;;;;;;;3.00;0.90;;;;;;;15.91;39.02;97159.05;238928;180;138106;-54
2024/03/28 17:37:03;;;;;;;3.80;1.10;;;;;;;15.83;39.61;97160.77;239040;180;140560;-55
2024/03/28 17:42:07;;;;;;;4.70;1.10;;;;;;;15.80;39.67;97160.63;239068;180;150630;-55
2024/03/28 17:47:10;;;;;;;4.80;1.40;;;;;;;15.75;39.49;97164.89;238992;180;137487;-57
2024/03/28 17:52:14;;;;;;;2.50;1.20;;;;;;;15.71;39.78;97166.29;239018;180;138458;-54
2024/03/28 17:57:17;;;;;;;5.10;1.10;;;;;;;15.69;39.90;97163.52;238715;180;151381;-57
2024/03/28 18:02:21;;;;;;;3.70;1.30;;;;;;;15.67;39.97;97161.17;238844;180;137492;-54
2024/03/28 18:07:26;;;;;;;4.70;1.40;;;;;;;15.67;40.32;97159.92;239005;180;137171;-55
2024/03/28 18:12:29;;;;;;;2.90;1.30;;;;;;;15.68;40.05;97159.16;239041;180;151688;-53
2024/03/28 18:17:32;;;;;;;6.80;1.50;;;;;;;15.66;40.12;97159.36;239058;180;137558;-56
2024/03/28 18:22:39;;;;;;;6.10;1.60;;;;;;;15.61;40.21;97169.52;239118;180;136928;-53
2024/03/28 18:27:42;;;;;;;4.40;1.60;;;;;;;15.61;40.46;97177.15;239015;180;151643;-57
2024/03/28 18:32:46;;;;;;;5.90;2.10;;;;;;;15.64;40.65;97181.66;239059;180;138002;-54
2024/03/28 18:37:48;;;;;;;6.70;2.20;;;;;;;15.59;41.07;97188.36;239113;180;136353;-55
2024/03/28 18:42:54;;;;;;;9.10;2.50;;;;;;;15.50;41.42;97186.88;239056;180;151116;-54
2024/03/28 18:47:57;;;;;;;9.60;2.90;;;;;;;15.36;41.98;97187.38;239085;180;137365;-56
2024/03/28 18:53:00;;;;;;;12.50;3.10;;;;;;;15.21;42.60;97192.79;239016;176;137227;-54
2024/03/28 18:58:04;;;;;;;8.90;3.00;;;;;;;15.08;43.15;97199.73;239040;180;151209;-56
2024/03/28 19:03:07;;;;;;;14.00;3.00;;;;;;;15.03;43.10;97200.64;239044;180;137529;-55
2024/03/28 19:08:11;;;;;;;9.90;3.30;;;;;;;14.97;43.52;97206.98;239030;180;137030;-55
2024/03/28 19:13:14;;;;;;;8.60;3.80;;;;;;;14.99;43.30;97205.50;239048;180;151190;-55
2024/03/28 19:18:21;;;;;;;12.40;4.20;;;;;;;15.01;43.21;97205.84;239083;180;137785;-55
2024/03/28 19:23:27;;;;;;;10.90;4.50;;;;;;;15.01;43.18;97215.66;239067;172;136536;-54
2024/03/28 19:28:30;;;;;;;;;;;;;;;14.98;43.38;97214.23;239074;180;151326;-54
2024/03/28 19:33:35;;;;;;;11.30;5.50;;;;;;;14.98;43.48;97212.04;239153;180;136516;-56
2024/03/28 19:38:38;;;;;;;11.90;5.10;;;;;;;14.94;43.70;97211.77;239094;180;137287;-53
2024/03/28 19:43:40;;;;;;;9.60;5.00;;;;;;;14.87;43.91;97208.58;239120;180;151551;-54
2024/03/28 19:48:43;;;;;;;13.90;5.10;;;;;;;14.85;44.08;97201.12;239093;180;136472;-54
2024/03/28 19:53:46;;;;;;;10.00;5.00;;;;;;;14.78;44.05;97195.30;239117;180;137000;-54
2024/03/28 19:58:53;;;;;;;11.20;5.50;;;;;;;14.79;44.25;97195.27;239076;180;151899;-55
2024/03/28 20:03:56;;;;;;;12.80;7.40;;;;;;;14.83;44.78;97182.30;238916;180;136499;-55
2024/03/28 20:08:59;;;;;;;11.40;5.00;;;;;;;14.86;44.34;97184.92;239040;179;137866;-56
2024/03/28 20:14:04;;;;;;;14.60;5.80;;;;;;;14.81;44.50;97189.13;239011;177;151354;-56
2024/03/28 20:19:08;;;;;;;;;;;;;;;14.79;44.51;97183.09;239110;173;137218;-55
2024/03/28 20:24:11;;;;;;;10.30;5.40;;;;;;;14.73;44.61;97179.08;239112;180;136214;-65
2024/03/28 20:29:14;;;;;;;17.20;7.10;;;;;;;14.65;44.79;97184.95;238906;180;151748;-56
2024/03/28 20:34:18;;;;;;;8.90;5.40;;;;;;;14.62;44.89;97187.18;238949;180;138795;-57
2024/03/28 20:39:21;;;;;;;57.40;35.50;;;;;;;14.66;45.41;97185.41;238985;180;136694;-55
2024/03/28 20:44:26;;;;;;;13.00;5.80;;;;;;;14.76;45.22;97175.23;239009;180;152011;-54
2024/03/28 20:49:29;;;;;;;12.60;4.70;;;;;;;14.76;45.39;97173.43;239028;180;137541;-56
2024/03/28 20:54:33;;;;;;;8.20;3.80;;;;;;;14.76;45.68;97159.18;239113;180;137941;-58
2024/03/28 20:59:37;;;;;;;8.40;3.00;;;;;;;14.74;46.05;97167.41;239033;180;151506;-55
2024/03/28 21:04:42;;;;;;;5.30;2.30;;;;;;;14.72;46.78;97189.57;238974;178;137842;-56
2024/03/28 21:15:11;;;;;;;7.60;4.60;;;;;;;14.83;48.36;97174.43;238955;178;151113;-56
2024/03/28 21:20:14;;;;;;;5.10;3.30;;;;;;;14.84;48.18;97199.27;239014;176;138102;-56
2024/03/28 21:25:17;;;;;;;8.80;2.90;;;;;;;14.78;48.51;97208.21;238891;180;137259;-56
2024/03/28 21:30:20;;;;;;;6.10;2.40;;;;;;;14.71;48.68;97191.98;238996;180;151946;-57
2024/03/28 21:35:23;;;;;;;5.20;2.00;;;;;;;14.73;48.89;97188.56;239055;180;137834;-56
2024/03/28 21:40:27;;;;;;;7.70;2.60;;;;;;;14.73;49.10;97197.88;239089;180;137729;-57
2024/03/28 21:45:30;;;;;;;97.50;76.70;;;;;;;14.71;49.79;97201.31;239115;177;151267;-56
2024/03/28 21:50:33;;;;;;;6.60;4.10;;;;;;;14.72;50.12;97199.87;239077;180;137814;-55
2024/03/28 21:55:36;;;;;;;4.80;2.80;;;;;;;14.67;50.19;97203.35;239100;180;136944;-56
2024/03/28 22:00:38;;;;;;;4.70;2.70;;;;;;;14.59;50.84;97205.59;239085;180;152727;-56
2024/03/28 22:05:52;;;;;;;6.60;2.90;;;;;;;14.55;51.71;97202.60;239055;176;137805;-56
2024/03/28 22:10:56;;;;;;;6.60;3.10;;;;;;;14.51;53.10;97196.33;239153;180;137396;-54
2024/03/28 22:16:05;;;;;;;4.90;2.80;;;;;;;14.39;53.68;97201.97;239096;176;151838;-56
2024/03/28 22:21:08;;;;;;;5.80;2.60;;;;;;;14.30;53.38;97211.85;239093;180;136954;-55
2024/03/28 22:26:11;;;;;;;6.70;3.00;;;;;;;14.30;53.12;97224.77;239089;180;137843;-56
2024/03/28 22:31:14;;;;;;;6.70;3.10;;;;;;;14.27;53.24;97218.67;239064;180;151349;-55
2024/03/28 22:36:17;;;;;;;10.80;4.40;;;;;;;14.14;53.31;97235.23;239159;180;136531;-54
2024/03/28 22:41:20;;;;;;;7.90;4.60;;;;;;;13.90;53.83;97268.71;239085;180;136822;-56
2024/03/28 22:46:23;;;;;;;8.20;3.30;;;;;;;13.60;54.45;97303.16;239153;176;151124;-55
2024/03/28 22:51:26;;;;;;;5.10;3.10;;;;;;;13.38;54.68;97328.73;239015;180;137265;-54
2024/03/28 22:56:29;;;;;;;5.30;2.80;;;;;;;13.16;55.27;97361.77;239109;179;136655;-52
2024/03/28 23:01:32;;;;;;;6.80;3.30;;;;;;;12.93;56.33;97387.34;239050;180;151761;-54
2024/03/28 23:06:35;;;;;;;8.30;3.30;;;;;;;12.78;57.69;97412.30;239104;180;137380;-56
2024/03/28 23:11:38;;;;;;;7.60;2.90;;;;;;;12.60;58.91;97432.23;239078;180;137626;-53
2024/03/28 23:16:41;;;;;;;5.80;2.70;;;;;;;12.37;59.75;97452.04;239102;180;151358;-55
2024/03/28 23:21:44;;;;;;;4.60;2.30;;;;;;;12.08;61.21;97466.23;239093;180;136463;-55
2024/03/28 23:26:47;;;;;;;2.60;1.40;;;;;;;11.76;62.28;97494.48;239181;180;136665;-55
2024/03/28 23:31:50;;;;;;;2.60;1.30;;;;;;;11.43;62.56;97506.52;238917;180;152363;-56
2024/03/28 23:36:57;;;;;;;2.20;1.20;;;;;;;11.19;62.62;97522.33;239062;176;141128;-56